createdAt,value
2023-01-07T00:02:26.922Z,98774.2
2023-01-07T00:08:03.135Z,98770.6
2023-01-07T00:13:39.482Z,98770.8
2023-01-07T00:19:15.339Z,98763.6
2023-01-07T00:24:50.594Z,98763.2
2023-01-07T00:30:26.828Z,98753.7
2023-01-07T00:36:02.481Z,98738.1
2023-01-07T00:41:37.551Z,98733.5
2023-01-07T00:47:15.043Z,98731.8
2023-01-07T00:52:52.239Z,98720.6
2023-01-07T00:58:27.719Z,98713.1
2023-01-07T01:04:03.933Z,98703.8
2023-01-07T01:09:39.824Z,98695.8
2023-01-07T01:15:15.030Z,98684.1
2023-01-07T01:20:51.551Z,98684.3
2023-01-07T01:26:30.576Z,98683.1
2023-01-07T01:32:05.846Z,98677.6
2023-01-07T01:37:42.253Z,98669.4
2023-01-07T01:43:18.202Z,98673
2023-01-07T01:48:54.307Z,98670.7
2023-01-07T01:54:32.026Z,98680.9
2023-01-07T02:00:08.233Z,98672.3
2023-01-07T02:05:43.260Z,98673.8
2023-01-07T02:11:19.982Z,98676.6
2023-01-07T02:16:55.936Z,98673.4
2023-01-07T02:22:31.286Z,98670.8
2023-01-07T02:28:08.172Z,98681.5
2023-01-07T02:33:44.792Z,98674.8
2023-01-07T02:39:19.715Z,98671.6
2023-01-07T02:44:56.779Z,98664.2
2023-01-07T02:50:32.517Z,98660.3
2023-01-07T02:56:08.833Z,98665.6
2023-01-07T03:01:45.380Z,98653.6
2023-01-07T03:07:23.136Z,98653.3
2023-01-07T03:12:58.461Z,98645.1
2023-01-07T03:18:35.423Z,98639.2
2023-01-07T03:24:11.394Z,98632.5
2023-01-07T03:29:46.186Z,98621.6
2023-01-07T03:35:22.431Z,98610.5
2023-01-07T03:40:59.326Z,98597.8
2023-01-07T03:46:34.376Z,98590.7
2023-01-07T03:52:10.372Z,98582.8
2023-01-07T03:57:46.061Z,98580.7
2023-01-07T04:03:21.316Z,98580.6
2023-01-07T04:08:57.396Z,98572.4
2023-01-07T04:14:33.324Z,98562
2023-01-07T04:20:08.959Z,98551.3
2023-01-07T04:25:45.331Z,98545.5
2023-01-07T04:31:21.919Z,98536.8
2023-01-07T04:36:58.302Z,98536.4
2023-01-07T04:42:34.500Z,98528.2
2023-01-07T04:48:09.919Z,98524.1
2023-01-07T04:53:45.095Z,98518.9
2023-01-07T04:59:21.509Z,98507.4
2023-01-07T05:04:56.711Z,98495.7
2023-01-07T05:10:31.401Z,98496.2
2023-01-07T05:16:07.956Z,98490.4
2023-01-07T05:21:43.513Z,98484.2
2023-01-07T05:27:18.430Z,98477.3
2023-01-07T05:32:54.954Z,98477
2023-01-07T05:38:30.334Z,98478
2023-01-07T05:44:06.236Z,98481.3
2023-01-07T05:49:42.575Z,98492.7
2023-01-07T05:55:19.313Z,98509.3
2023-01-07T06:00:55.886Z,98505.5
2023-01-07T06:06:32.652Z,98517.9
2023-01-07T06:12:08.321Z,98520.7
2023-01-07T06:17:43.053Z,98529.9
2023-01-07T06:23:19.987Z,98523.4
2023-01-07T06:28:55.747Z,98543.6
2023-01-07T06:34:31.050Z,98528.6
2023-01-07T06:40:07.015Z,98519.6
2023-01-07T06:45:42.761Z,98532.8
2023-01-07T06:51:17.726Z,98537.2
2023-01-07T06:56:54.641Z,98528.3
2023-01-07T07:02:32.309Z,98529
2023-01-07T07:08:10.213Z,98532.8
2023-01-07T07:13:48.115Z,98521.5
2023-01-07T07:19:24.531Z,98541.4
2023-01-07T07:25:03.373Z,98534
2023-01-07T07:30:49.044Z,98540.4
2023-01-07T07:36:25.996Z,98546
2023-01-07T07:42:01.808Z,98547.2
2023-01-07T07:47:45.186Z,98556.6
2023-01-07T07:53:52.269Z,98554
2023-01-07T07:59:28.240Z,98556.2
2023-01-07T08:05:07.513Z,98555.2
2023-01-07T08:10:45.545Z,98535.3
2023-01-07T08:16:30.965Z,98544.1
2023-01-07T08:22:25.999Z,98536
2023-01-07T08:28:04.286Z,98548.5
2023-01-07T08:33:41.933Z,98558.5
2023-01-07T08:39:18.110Z,98562.2
2023-01-07T08:44:54.471Z,98554.5
2023-01-07T08:50:29.808Z,98530.5
2023-01-07T08:56:14.997Z,98535.5
2023-01-07T09:01:51.338Z,98551.8
2023-01-07T09:07:29.152Z,98554.1
2023-01-07T09:13:06.882Z,98551
2023-01-07T09:18:41.959Z,98546.9
2023-01-07T09:24:20.323Z,98554
2023-01-07T09:31:00.919Z,98574.9
2023-01-07T09:36:36.633Z,98561.4
2023-01-07T09:42:37.514Z,98569.8
2023-01-07T09:48:14.349Z,98572.9
2023-01-07T09:53:51.513Z,98586.1
2023-01-07T09:59:29.799Z,98583.2
2023-01-07T10:05:09.961Z,98596.6
2023-01-07T10:10:45.721Z,98591.2
2023-01-07T10:16:22.351Z,98611.7
2023-01-07T10:21:59.428Z,98617.9
2023-01-07T10:27:35.322Z,98629.6
2023-01-07T10:33:19.296Z,98636
2023-01-07T10:38:55.974Z,98626.2
2023-01-07T10:44:58.536Z,98631.1
2023-01-07T10:51:08.714Z,98632.8
2023-01-07T10:56:45.960Z,98621.9
2023-01-07T11:02:23.054Z,98625.8
2023-01-07T11:08:00.046Z,98611.6
2023-01-07T11:13:39.439Z,98602.2
2023-01-07T11:19:26.025Z,98596.8
2023-01-07T11:25:01.301Z,98593.3
2023-01-07T11:30:37.180Z,98589.4
2023-01-07T11:36:22.579Z,98585.3
2023-01-07T11:41:58.332Z,98568.7
2023-01-07T11:48:17.683Z,98539.8
2023-01-07T11:54:00.517Z,98542.2
2023-01-07T11:59:38.819Z,98536.9
2023-01-07T12:05:32.644Z,98531.9
2023-01-07T12:12:01.667Z,98524
2023-01-07T12:17:46.277Z,98504.4
2023-01-07T12:23:23.086Z,98504.3
2023-01-07T12:28:58.500Z,98512
2023-01-07T12:34:45.268Z,98524.4
2023-01-07T12:40:21.736Z,98520
2023-01-07T12:45:57.756Z,98504.4
2023-01-07T12:51:34.891Z,98490.5
2023-01-07T12:57:14.287Z,98480.9
2023-01-07T13:02:58.766Z,98456.4
2023-01-07T13:08:41.677Z,98426.6
2023-01-07T13:14:23.735Z,98414.5
2023-01-07T13:20:08.755Z,98407
2023-01-07T13:25:43.606Z,98401
2023-01-07T13:31:20.310Z,98382.8
2023-01-07T13:37:04.222Z,98369.1
2023-01-07T13:42:41.705Z,98342.1
2023-01-07T13:48:17.731Z,98324.6
2023-01-07T13:53:56.759Z,98338.2
2023-01-07T13:59:33.470Z,98345
2023-01-07T14:05:10.292Z,98318.3
2023-01-07T14:10:45.953Z,98312.9
2023-01-07T14:16:25.417Z,98307.2
2023-01-07T14:22:06.199Z,98293.8
2023-01-07T14:27:42.542Z,98289.1
2023-01-07T14:33:18.181Z,98276.3
2023-01-07T14:38:54.493Z,98273.5
2023-01-07T14:44:37.327Z,98263.1
2023-01-07T14:50:24.344Z,98264.9
2023-01-07T14:56:00.816Z,98262.1
2023-01-07T15:01:37.510Z,98249
2023-01-07T15:07:13.802Z,98247.8
2023-01-07T15:12:57.069Z,98252.5
2023-01-07T15:18:32.956Z,98250
2023-01-07T15:24:08.317Z,98248.3
2023-01-07T15:29:54.819Z,98237.7
2023-01-07T15:35:29.741Z,98252.6
2023-01-07T15:41:05.221Z,98246.4
2023-01-07T15:46:42.816Z,98238.4
2023-01-07T15:52:27.534Z,98240
2023-01-07T15:58:26.593Z,98260.8
2023-01-07T16:04:14.275Z,98264.9
2023-01-07T16:09:50.926Z,98279.9
2023-01-07T16:15:25.829Z,98286.8
2023-01-07T16:21:07.498Z,98290.4
2023-01-07T16:26:50.620Z,98286
2023-01-07T16:32:25.734Z,98297.9
2023-01-07T16:38:02.801Z,98276.7
2023-01-07T16:43:43.204Z,98270.9
2023-01-07T16:49:18.145Z,98276.1
2023-01-07T16:54:54.737Z,98261.1
2023-01-07T17:00:42.417Z,98253.3
2023-01-07T17:06:20.925Z,98249.5
2023-01-07T17:11:58.555Z,98253.8
2023-01-07T17:17:34.188Z,98249
2023-01-07T17:23:09.664Z,98258.1
2023-01-07T17:28:49.420Z,98258.3
2023-01-07T17:35:11.913Z,98242.8
2023-01-07T17:40:51.161Z,98240
2023-01-07T17:46:30.762Z,98241.8
2023-01-07T17:52:06.916Z,98256.2
2023-01-07T17:57:43.095Z,98264.8
2023-01-07T18:03:21.439Z,98265.5
2023-01-07T18:08:58.020Z,98268
2023-01-07T18:15:23.676Z,98261.5
2023-01-07T18:21:01.024Z,98255
2023-01-07T18:26:46.594Z,98256.5
2023-01-07T18:32:22.459Z,98273.8
2023-01-07T18:38:07.774Z,98261.2
2023-01-07T18:43:55.717Z,98270
2023-01-07T18:50:11.715Z,98268.9
2023-01-07T18:56:05.892Z,98271.4
2023-01-07T19:02:16.950Z,98276.6
2023-01-07T19:08:14.294Z,98281.7
2023-01-07T19:13:59.373Z,98272.6
2023-01-07T19:19:49.436Z,98274.1
2023-01-07T19:26:01.280Z,98280.3
2023-01-07T19:31:37.759Z,98272.7
2023-01-07T19:37:13.528Z,98278.9
2023-01-07T19:42:57.764Z,98297.3
2023-01-07T19:48:33.898Z,98310.9
2023-01-07T19:54:09.403Z,98322.1
2023-01-07T19:59:53.571Z,98324.1
2023-01-07T20:05:41.010Z,98329.3
2023-01-07T20:11:35.022Z,98315.8
2023-01-07T20:17:12.498Z,98291.8
2023-01-07T20:23:14.894Z,98295.7
2023-01-07T20:28:59.748Z,98297.1
2023-01-07T20:34:43.549Z,98319.1
2023-01-07T20:40:20.358Z,98331.4
2023-01-07T20:45:56.348Z,98328.9
2023-01-07T20:51:33.675Z,98323.9
2023-01-07T20:57:10.556Z,98343.4
2023-01-07T21:02:47.059Z,98344.5
2023-01-07T21:08:22.427Z,98336.6
2023-01-07T21:14:02.406Z,98330.3
2023-01-07T21:19:38.229Z,98356
2023-01-07T21:25:14.313Z,98349
2023-01-07T21:30:58.006Z,98356.2
2023-01-07T21:38:20.568Z,98357.5
2023-01-07T21:43:57.118Z,98364.8
2023-01-07T21:49:35.924Z,98357.2
2023-01-07T21:55:16.068Z,98361.2
2023-01-07T22:00:52.369Z,98351.8
2023-01-07T22:06:30.619Z,98355.3
2023-01-07T22:12:06.583Z,98363.2
2023-01-07T22:17:41.432Z,98358.3
2023-01-07T22:23:22.214Z,98355.1
2023-01-07T22:29:04.026Z,98354.8
2023-01-07T22:34:39.003Z,98348.2
2023-01-07T22:40:29.562Z,98346.8
2023-01-07T22:46:17.691Z,98344.5
2023-01-07T22:52:50.243Z,98358.4
2023-01-07T22:58:39.495Z,98377.2
2023-01-07T23:04:15.499Z,98363.2
2023-01-07T23:09:52.369Z,98362.4
2023-01-07T23:15:29.579Z,98361
2023-01-07T23:21:04.489Z,98363.6
2023-01-07T23:27:01.202Z,98366.4
2023-01-07T23:32:37.716Z,98362.9
2023-01-07T23:38:12.509Z,98360.2
2023-01-07T23:43:50.144Z,98355.9
2023-01-07T23:49:51.347Z,98340.1
2023-01-07T23:55:44.895Z,98343.9
